Time;durP1;ratioP1;P1;durP2;ratioP2;P2;SDS_P1;SDS_P2;PMS_P1;PMS_P2;Temp;Humidity;BMP_temperature;BMP_pressure;BME280_temperature;BME280_humidity;BME280_pressure;Samples;Min_cycle;Max_cycle;Signal;HPM_P1;HPM_P2
2022/02/15 00:01:37;;;;;;;8.90;2.13;;;7.30;90.20;;;;;;5079911;28;20164;-74
2022/02/15 00:04:03;;;;;;;9.00;2.87;;;7.30;90.30;;;;;;5072429;28;20173;-76
2022/02/15 00:06:30;;;;;;;5.40;2.83;;;7.30;90.30;;;;;;5081999;28;20427;-76
2022/02/15 00:08:56;;;;;;;12.40;3.40;;;7.30;90.30;;;;;;5093161;28;20438;-76
2022/02/15 00:11:22;;;;;;;3.40;2.40;;;7.30;90.40;;;;;;5088541;28;20465;-75
2022/02/15 00:13:47;;;;;;;6.80;2.77;;;7.30;90.40;;;;;;5084714;28;20233;-76
2022/02/15 00:16:13;;;;;;;5.30;2.43;;;7.30;90.40;;;;;;5082341;28;20189;-77
2022/02/15 00:18:39;;;;;;;6.03;2.37;;;7.40;90.50;;;;;;5080875;28;20173;-76
2022/02/15 00:21:04;;;;;;;5.70;2.53;;;7.30;90.40;;;;;;5081326;28;20169;-76
2022/02/15 00:23:31;;;;;;;7.60;2.40;;;7.30;90.50;;;;;;5086635;28;20165;-76
2022/02/15 00:25:57;;;;;;;9.10;2.57;;;7.30;90.60;;;;;;5087556;28;20193;-77
2022/02/15 00:28:23;;;;;;;6.57;2.30;;;7.30;90.70;;;;;;5087687;28;20458;-75
2022/02/15 00:30:48;;;;;;;4.50;2.13;;;7.30;90.80;;;;;;5085313;28;20223;-74
2022/02/15 00:33:14;;;;;;;6.07;2.30;;;7.30;90.80;;;;;;5080725;28;20165;-76
2022/02/15 00:35:44;;;;;;;5.47;2.00;;;7.40;90.90;;;;;;5072446;28;20267;-76
2022/02/15 00:38:10;;;;;;;6.90;2.70;;;7.40;90.80;;;;;;5078113;28;20434;-76
2022/02/15 00:40:37;;;;;;;7.33;2.77;;;7.40;90.80;;;;;;5057274;28;20266;-76
2022/02/15 00:43:04;;;;;;;7.63;1.90;;;7.40;90.80;;;;;;5063523;28;20412;-78
2022/02/15 00:45:30;;;;;;;7.57;2.63;;;7.50;90.80;;;;;;5070490;28;20447;-76
2022/02/15 00:47:57;;;;;;;7.37;2.73;;;7.50;90.80;;;;;;5070538;28;20408;-76
2022/02/15 00:50:23;;;;;;;3.07;2.77;;;7.50;90.80;;;;;;5060423;28;20890;-76
2022/02/15 00:52:49;;;;;;;4.67;2.33;;;7.50;90.80;;;;;;5064843;28;20486;-75
2022/02/15 00:55:15;;;;;;;13.73;2.30;;;7.60;90.70;;;;;;5063667;28;20452;-76
2022/02/15 00:57:41;;;;;;;8.13;2.60;;;7.60;90.70;;;;;;5065189;28;20478;-76
2022/02/15 01:00:09;;;;;;;7.57;2.20;;;7.60;90.70;;;;;;5081696;28;20203;-75
2022/02/15 01:02:35;;;;;;;4.27;2.87;;;7.60;90.60;;;;;;5087178;28;20419;-76
2022/02/15 01:05:01;;;;;;;4.73;2.50;;;7.60;90.60;;;;;;5085022;28;20428;-77
2022/02/15 01:07:26;;;;;;;6.20;2.63;;;7.60;90.60;;;;;;5085949;28;20173;-77
2022/02/15 01:09:52;;;;;;;7.73;3.10;;;7.60;90.60;;;;;;5078784;28;20223;-75
2022/02/15 01:12:18;;;;;;;6.23;2.63;;;7.70;90.70;;;;;;5076340;28;20174;-75
2022/02/15 01:14:44;;;;;;;8.97;2.40;;;7.70;90.70;;;;;;5088813;28;20188;-75
2022/02/15 01:17:10;;;;;;;12.03;3.23;;;7.70;90.70;;;;;;5082702;28;20418;-76
2022/02/15 01:19:35;;;;;;;4.50;3.07;;;7.70;90.70;;;;;;5081730;28;20411;-75
2022/02/15 01:22:02;;;;;;;4.50;2.63;;;7.70;90.70;;;;;;5083672;28;20425;-75
2022/02/15 01:24:28;;;;;;;8.30;3.07;;;7.70;90.70;;;;;;5090867;28;20649;-76
2022/02/15 01:26:54;;;;;;;9.03;2.87;;;7.80;90.70;;;;;;5082668;28;20466;-76
2022/02/15 01:29:27;;;;;;;5.93;2.70;;;7.80;90.70;;;;;;5083252;28;20403;-74
2022/02/15 01:31:53;;;;;;;4.43;2.50;;;7.80;90.70;;;;;;5091375;28;20172;-75
2022/02/15 01:34:20;;;;;;;7.33;2.83;;;7.80;90.60;;;;;;5087052;28;20450;-76
2022/02/15 01:36:47;;;;;;;9.80;3.27;;;7.80;90.60;;;;;;5073530;28;20427;-75
2022/02/15 01:39:17;;;;;;;15.10;2.80;;;7.80;90.70;;;;;;5062828;28;20503;-75
2022/02/15 01:41:44;;;;;;;5.10;2.70;;;7.90;90.70;;;;;;5049347;28;20838;-75
2022/02/15 01:44:09;;;;;;;7.57;2.77;;;7.90;90.70;;;;;;5049318;28;20269;-75
2022/02/15 01:46:38;;;;;;;5.80;3.00;;;7.90;90.60;;;;;;5048749;28;20493;-75
2022/02/15 01:49:05;;;;;;;13.73;2.83;;;7.80;90.60;;;;;;5049254;28;20959;-74
2022/02/15 01:51:31;;;;;;;9.43;3.50;;;7.80;90.70;;;;;;5049161;28;20420;-74
2022/02/15 01:53:57;;;;;;;7.40;2.43;;;7.80;90.70;;;;;;5048825;28;20810;-74
2022/02/15 01:56:23;;;;;;;8.07;3.00;;;7.90;90.70;;;;;;5053308;28;20181;-74
2022/02/15 01:58:51;;;;;;;4.77;2.80;;;7.90;90.70;;;;;;5057931;28;20411;-75
2022/02/15 02:01:19;;;;;;;5.70;3.23;;;7.90;90.70;;;;;;5073592;28;20418;-75
2022/02/15 02:03:56;;;;;;;7.63;3.30;;;7.90;90.70;;;;;;5058772;28;20415;-75
2022/02/15 02:06:28;;;;;;;14.63;2.97;;;7.90;90.70;;;;;;5074833;28;20435;-74
2022/02/15 02:08:54;;;;;;;7.87;3.00;;;7.90;90.70;;;;;;5056270;28;20784;-74
2022/02/15 02:11:20;;;;;;;6.00;2.90;;;7.90;90.70;;;;;;5056478;28;20172;-74
2022/02/15 02:13:49;;;;;;;4.30;2.53;;;7.90;90.80;;;;;;5073871;28;20443;-75
2022/02/15 02:16:16;;;;;;;6.10;2.90;;;7.90;90.80;;;;;;5072824;28;20493;-76
2022/02/15 02:18:53;;;;;;;7.40;2.97;;;7.90;90.80;;;;;;5073003;28;20891;-74
2022/02/15 02:21:38;;;;;;;4.30;2.20;;;7.90;90.80;;;;;;5072969;28;20404;-74
2022/02/15 02:24:06;;;;;;;5.00;2.87;;;7.90;90.80;;;;;;5072553;28;20486;-74
2022/02/15 02:26:33;;;;;;;5.33;2.20;;;7.90;90.90;;;;;;5055902;28;20443;-75
2022/02/15 02:28:59;;;;;;;5.20;2.60;;;7.90;90.90;;;;;;5072557;28;20403;-74
2022/02/15 02:31:29;;;;;;;11.00;2.73;;;7.90;90.90;;;;;;5072477;28;20476;-74
2022/02/15 02:34:03;;;;;;;6.27;2.60;;;7.90;91.00;;;;;;5073968;28;20795;-74
2022/02/15 02:36:29;;;;;;;9.70;2.97;;;7.90;91.00;;;;;;5072158;28;20419;-75
2022/02/15 02:38:55;;;;;;;3.10;2.47;;;7.90;91.40;;;;;;5068469;28;20462;-74
2022/02/15 02:41:21;;;;;;;6.60;2.80;;;7.90;91.00;;;;;;5035622;28;20781;-75
2022/02/15 02:43:46;;;;;;;7.10;2.70;;;7.90;91.00;;;;;;5052360;28;20416;-75
2022/02/15 02:46:13;;;;;;;7.17;2.83;;;8.00;91.00;;;;;;5051780;28;20267;-75
2022/02/15 02:48:43;;;;;;;8.00;2.57;;;8.00;90.90;;;;;;5052832;28;20463;-75
2022/02/15 02:51:09;;;;;;;6.17;2.70;;;8.00;90.90;;;;;;5052814;28;20243;-75
2022/02/15 02:53:35;;;;;;;7.10;2.00;;;8.00;90.90;;;;;;5052235;28;21006;-74
2022/02/15 02:56:00;;;;;;;3.73;2.27;;;8.00;91.10;;;;;;5034658;28;20186;-74
2022/02/15 02:58:26;;;;;;;12.60;3.10;;;8.00;90.80;;;;;;5052856;28;20252;-75
2022/02/15 03:00:52;;;;;;;13.90;3.20;;;7.90;90.80;;;;;;5072014;28;20828;-73
2022/02/15 03:03:25;;;;;;;6.60;3.37;;;7.90;90.90;;;;;;5072005;28;20165;-74
2022/02/15 03:05:52;;;;;;;6.10;3.93;;;7.80;90.90;;;;;;5072337;28;20434;-75
2022/02/15 03:08:19;;;;;;;3.87;2.37;;;7.80;91.00;;;;;;5071710;28;20430;-75
2022/02/15 03:10:47;;;;;;;4.30;2.43;;;7.80;91.10;;;;;;5072526;28;20954;-74
2022/02/15 03:13:24;;;;;;;12.57;3.07;;;7.80;91.10;;;;;;5071502;28;20407;-74
2022/02/15 03:15:50;;;;;;;12.70;3.53;;;7.70;91.00;;;;;;5071520;28;20445;-76
2022/02/15 03:18:16;;;;;;;5.47;2.37;;;7.70;91.10;;;;;;5072859;28;20482;-75
2022/02/15 03:20:42;;;;;;;4.83;3.17;;;7.70;91.10;;;;;;5071927;28;20515;-75
2022/02/15 03:23:07;;;;;;;5.97;2.80;;;7.70;91.20;;;;;;5071756;28;20173;-75
2022/02/15 03:25:36;;;;;;;6.90;4.00;;;7.60;91.20;;;;;;5071509;28;20193;-74
2022/02/15 03:28:02;;;;;;;7.30;2.70;;;7.70;91.30;;;;;;5073411;28;20410;-75
2022/02/15 03:30:28;;;;;;;7.10;2.90;;;7.60;91.40;;;;;;5072590;28;20502;-73
2022/02/15 03:32:53;;;;;;;4.40;2.47;;;7.60;91.40;;;;;;5071170;28;20476;-74
2022/02/15 03:35:19;;;;;;;6.10;2.60;;;7.60;91.50;;;;;;5071190;28;20201;-75
2022/02/15 03:37:55;;;;;;;8.70;3.43;;;7.60;91.50;;;;;;5071310;28;20169;-75
2022/02/15 03:40:21;;;;;;;8.73;2.90;;;7.60;91.50;;;;;;5056423;28;20428;-76
2022/02/15 03:43:05;;;;;;;5.20;3.13;;;7.60;91.50;;;;;;5050864;28;20534;-75
2022/02/15 03:45:31;;;;;;;4.77;3.33;;;7.60;91.50;;;;;;5050911;28;20439;-74
2022/02/15 03:48:08;;;;;;;9.20;3.73;;;7.60;91.50;;;;;;5036078;28;20912;-75
2022/02/15 03:50:34;;;;;;;4.97;2.83;;;7.60;91.60;;;;;;5032402;28;20956;-75
2022/02/15 03:53:02;;;;;;;6.97;3.77;;;7.60;91.60;;;;;;5014856;28;20421;-75
2022/02/15 03:55:29;;;;;;;6.87;3.10;;;7.60;91.70;;;;;;5014278;28;20518;-75
2022/02/15 03:57:55;;;;;;;7.13;3.40;;;7.60;91.80;;;;;;5032140;28;20401;-74
2022/02/15 04:00:20;;;;;;;7.83;3.50;;;7.60;91.80;;;;;;5082294;28;20954;-75
2022/02/15 04:02:57;;;;;;;7.13;3.70;;;7.60;91.80;;;;;;5071144;28;20491;-75
2022/02/15 04:05:24;;;;;;;4.43;2.80;;;7.60;91.80;;;;;;5070271;28;20893;-75
2022/02/15 04:07:50;;;;;;;7.63;3.40;;;7.60;91.70;;;;;;5070761;28;20440;-74
2022/02/15 04:10:17;;;;;;;7.30;3.43;;;7.60;91.70;;;;;;5071071;28;20181;-74
2022/02/15 04:12:44;;;;;;;14.00;3.50;;;7.60;91.70;;;;;;5071526;28;20180;-74
2022/02/15 04:15:11;;;;;;;6.07;3.73;;;7.60;91.70;;;;;;5070729;28;20922;-74
2022/02/15 04:17:43;;;;;;;6.60;3.53;;;7.60;91.70;;;;;;5069842;28;20427;-74
2022/02/15 04:20:10;;;;;;;6.90;4.10;;;7.60;91.80;;;;;;5069937;28;20419;-74
2022/02/15 04:22:36;;;;;;;9.23;3.70;;;7.50;91.80;;;;;;5053894;28;20941;-75
2022/02/15 04:25:03;;;;;;;9.50;3.63;;;7.50;91.90;;;;;;5069976;28;20415;-75
2022/02/15 04:27:30;;;;;;;10.13;3.40;;;7.50;91.90;;;;;;5070379;28;20418;-75
2022/02/15 04:29:57;;;;;;;9.53;3.63;;;7.40;92.00;;;;;;5070278;28;20435;-74
2022/02/15 04:32:23;;;;;;;7.10;3.87;;;7.40;92.10;;;;;;5070726;28;20407;-75
2022/02/15 04:34:49;;;;;;;7.03;3.97;;;7.40;92.20;;;;;;5070476;28;20455;-74
2022/02/15 04:37:16;;;;;;;9.97;4.30;;;7.30;92.20;;;;;;5071062;28;20760;-74
2022/02/15 04:39:43;;;;;;;7.03;4.17;;;7.30;92.30;;;;;;5061810;28;20428;-77
2022/02/15 04:42:11;;;;;;;9.53;4.20;;;7.20;92.30;;;;;;5051471;28;20787;-74
2022/02/15 04:44:38;;;;;;;6.90;3.80;;;7.10;92.50;;;;;;5036189;28;20423;-74
2022/02/15 04:47:06;;;;;;;10.80;4.53;;;7.10;92.70;;;;;;5050173;28;20438;-73
2022/02/15 04:49:32;;;;;;;8.07;4.93;;;7.00;92.80;;;;;;5049915;28;20503;-74
2022/02/15 04:52:00;;;;;;;7.77;5.07;;;7.00;93.00;;;;;;5050157;28;20420;-74
2022/02/15 04:54:26;;;;;;;12.70;4.83;;;6.90;93.10;;;;;;5049106;28;20663;-73
2022/02/15 04:56:53;;;;;;;14.57;5.90;;;6.90;93.20;;;;;;5049622;28;20424;-73
2022/02/15 04:59:20;;;;;;;17.10;5.50;;;6.90;93.30;;;;;;5058321;28;20973;-73
2022/02/15 05:01:47;;;;;;;10.03;5.87;;;7.00;93.40;;;;;;5069673;28;20406;-73
2022/02/15 05:07:02;;;;;;;10.23;5.97;;;7.00;93.30;;;;;;5069177;28;21032;-73
2022/02/15 05:09:33;;;;;;;12.40;6.90;;;7.00;93.30;;;;;;5069624;28;20825;-73
2022/02/15 05:11:59;;;;;;;13.03;5.63;;;7.00;93.30;;;;;;5069939;28;20407;-74
2022/02/15 05:14:25;;;;;;;10.10;5.77;;;7.00;93.30;;;;;;5069579;28;20865;-74
2022/02/15 05:16:53;;;;;;;10.70;5.67;;;7.00;93.40;;;;;;5069864;28;20423;-74
2022/02/15 05:19:27;;;;;;;9.47;5.90;;;6.90;93.60;;;;;;5070402;28;20423;-74
2022/02/15 05:22:00;;;;;;;10.80;4.93;;;6.90;93.60;;;;;;5070844;28;20465;-75
2022/02/15 05:24:30;;;;;;;10.93;5.73;;;6.90;93.60;;;;;;5070368;28;20986;-75
2022/02/15 05:26:58;;;;;;;12.93;6.20;;;6.90;93.80;;;;;;5071105;28;20535;-75
2022/02/15 05:29:55;;;;;;;10.97;6.70;;;6.90;94.00;;;;;;5068738;28;20441;-75
2022/02/15 05:32:30;;;;;;;9.90;6.23;;;6.90;93.90;;;;;;5076452;28;20411;-75
2022/02/15 05:34:59;;;;;;;14.60;6.87;;;6.90;94.00;;;;;;5077167;28;20454;-74
2022/02/15 05:37:25;;;;;;;10.87;5.40;;;7.00;94.00;;;;;;5076451;28;20434;-74
2022/02/15 05:39:52;;;;;;;9.73;5.30;;;7.00;94.00;;;;;;5070110;28;20623;-74
2022/02/15 05:42:37;;;;;;;11.33;5.10;;;7.00;94.00;;;;;;5064660;28;20428;-74
2022/02/15 05:45:04;;;;;;;7.00;4.90;;;7.00;94.00;;;;;;5052729;28;20416;-74
2022/02/15 05:47:37;;;;;;;7.77;4.60;;;7.00;94.10;;;;;;5052577;28;20404;-74
2022/02/15 05:53:09;;;;;;;11.20;5.80;;;7.10;94.10;;;;;;4996512;28;20448;-88
2022/02/15 06:00:20;;;;;;;;;;;;;;;;;;;;;
2022/02/15 06:05:47;;;;;;;11.80;5.77;;;7.00;94.20;;;;;;4992138;28;20476;-76
2022/02/15 06:08:13;;;;;;;13.13;6.37;;;7.00;94.30;;;;;;5010133;28;20438;-76
2022/02/15 06:10:41;;;;;;;11.20;5.60;;;7.00;94.40;;;;;;5010524;28;20420;-76
2022/02/15 06:13:22;;;;;;;13.27;6.70;;;7.00;94.40;;;;;;5009654;28;20402;-75
2022/02/15 06:15:48;;;;;;;13.10;6.63;;;7.00;94.50;;;;;;5009442;28;20447;-76
2022/02/15 06:18:20;;;;;;;10.53;5.33;;;7.00;94.40;;;;;;5011708;28;20207;-77
2022/02/15 06:20:50;;;;;;;13.10;6.10;;;7.10;94.50;;;;;;5009981;28;20414;-77
2022/02/15 06:23:22;;;;;;;7.97;5.00;;;7.10;94.60;;;;;;5003540;28;20792;-77
2022/02/15 06:25:49;;;;;;;9.43;5.47;;;7.10;94.70;;;;;;4991689;28;21002;-76
2022/02/15 06:28:16;;;;;;;10.83;5.73;;;7.10;94.80;;;;;;4993344;28;20419;-76
2022/02/15 06:30:41;;;;;;;8.13;4.67;;;7.10;95.00;;;;;;5005950;28;20426;-77
2022/02/15 06:33:14;;;;;;;9.77;5.40;;;7.10;95.10;;;;;;5003160;28;20174;-76
2022/02/15 06:35:40;;;;;;;15.07;6.13;;;7.10;95.10;;;;;;5008894;28;20511;-76
2022/02/15 06:38:10;;;;;;;12.47;5.30;;;7.00;95.20;;;;;;5006294;28;20168;-77
2022/02/15 06:40:35;;;;;;;10.33;6.60;;;7.00;95.40;;;;;;5006850;28;20565;-77
2022/02/15 06:43:05;;;;;;;8.97;5.33;;;7.00;95.60;;;;;;4993438;28;20172;-77
2022/02/15 06:45:36;;;;;;;19.33;6.30;;;7.00;95.70;;;;;;4993137;28;20425;-77
2022/02/15 06:48:02;;;;;;;10.87;6.20;;;6.90;95.80;;;;;;5009333;28;20439;-77
2022/02/15 06:50:32;;;;;;;17.07;9.30;;;6.90;96.00;;;;;;5008710;28;20431;-72
2022/02/15 06:53:30;;;;;;;16.63;8.93;;;6.90;96.10;;;;;;4992840;28;20427;-72
2022/02/15 06:56:11;;;;;;;22.87;11.13;;;7.00;96.30;;;;;;4977498;28;20430;-72
2022/02/15 06:58:42;;;;;;;22.47;10.90;;;7.10;96.30;;;;;;4991898;28;20447;-72
2022/02/15 07:01:13;;;;;;;14.57;9.00;;;7.10;96.30;;;;;;4992421;28;20425;-73
2022/02/15 07:03:42;;;;;;;31.13;16.77;;;7.20;96.30;;;;;;4976041;28;22147;-72
2022/02/15 07:06:08;;;;;;;20.13;10.73;;;7.20;96.20;;;;;;5009699;28;20513;-71
2022/02/15 07:08:34;;;;;;;18.13;10.47;;;7.20;96.30;;;;;;4996974;28;20473;-72
2022/02/15 07:11:00;;;;;;;17.40;9.77;;;7.20;96.30;;;;;;5006048;28;20441;-72
2022/02/15 07:13:30;;;;;;;11.73;7.00;;;7.30;96.40;;;;;;5012389;28;20428;-70
2022/02/15 07:16:00;;;;;;;9.30;6.30;;;7.20;96.40;;;;;;4997607;28;20792;-72
2022/02/15 07:18:27;;;;;;;15.20;6.43;;;7.20;96.30;;;;;;4985265;28;20474;-73
2022/02/15 07:21:15;;;;;;;15.80;7.50;;;7.20;96.30;;;;;;5005875;28;20738;-73
2022/02/15 07:23:59;;;;;;;15.33;6.67;;;7.20;96.40;;;;;;4982930;28;20422;-73
2022/02/15 07:27:03;;;;;;;11.47;7.43;;;7.20;96.50;;;;;;5002223;28;20944;-72
2022/02/15 07:29:34;;;;;;;13.07;7.77;;;7.20;96.60;;;;;;4994114;28;20810;-72
2022/02/15 07:32:23;;;;;;;12.93;7.80;;;7.20;96.60;;;;;;5010624;28;20423;-73
2022/02/15 07:34:53;;;;;;;13.67;8.40;;;7.30;96.50;;;;;;5002100;28;20450;-72
2022/02/15 07:37:20;;;;;;;12.00;6.90;;;7.30;96.50;;;;;;5007695;28;20493;-71
2022/02/15 07:39:45;;;;;;;16.80;7.00;;;7.30;96.50;;;;;;5003888;28;20578;-72
2022/02/15 07:42:11;;;;;;;16.63;7.50;;;7.30;96.50;;;;;;5000862;28;20418;-73
2022/02/15 07:44:40;;;;;;;13.37;6.83;;;7.40;96.40;;;;;;5003270;28;20185;-71
2022/02/15 07:47:06;;;;;;;14.27;7.97;;;7.40;96.20;;;;;;5008870;28;20425;-71
2022/02/15 07:49:33;;;;;;;17.03;7.00;;;7.40;96.20;;;;;;4992147;28;20227;-72
2022/02/15 07:51:59;;;;;;;11.47;6.43;;;7.50;96.20;;;;;;4991273;28;20454;-72
2022/02/15 07:54:25;;;;;;;19.73;8.60;;;7.50;96.30;;;;;;4991350;28;20815;-72
2022/02/15 07:56:52;;;;;;;13.47;8.37;;;7.50;95.80;;;;;;4992389;28;20426;-72
2022/02/15 07:59:18;;;;;;;16.10;8.27;;;7.50;95.70;;;;;;4995864;28;20793;-72
2022/02/15 08:01:44;;;;;;;15.00;7.70;;;7.60;95.80;;;;;;5008053;28;20399;-74
2022/02/15 08:04:13;;;;;;;13.53;8.37;;;7.60;95.90;;;;;;4989944;28;20435;-72
2022/02/15 08:06:43;;;;;;;14.30;7.70;;;7.80;95.70;;;;;;4990435;28;20192;-72
2022/02/15 08:09:15;;;;;;;15.07;8.60;;;7.90;95.00;;;;;;4991396;28;20998;-72
2022/02/15 08:11:44;;;;;;;18.43;7.10;;;8.00;94.90;;;;;;5007635;28;20780;-72
2022/02/15 08:14:10;;;;;;;17.47;8.47;;;8.00;94.30;;;;;;4989323;28;20463;-72
2022/02/15 08:16:37;;;;;;;11.70;8.40;;;8.10;94.70;;;;;;4992354;28;20511;-72
2022/02/15 08:19:03;;;;;;;12.20;7.97;;;8.20;94.50;;;;;;4987528;28;20454;-73
2022/02/15 08:21:29;;;;;;;14.77;9.03;;;8.30;93.80;;;;;;5002682;28;20431;-72
2022/02/15 08:23:58;;;;;;;21.30;9.03;;;8.30;93.70;;;;;;4997041;28;20445;-71
2022/02/15 08:26:24;;;;;;;17.57;7.83;;;8.30;93.40;;;;;;4991335;28;20168;-73
2022/02/15 08:28:50;;;;;;;17.57;8.57;;;8.30;93.40;;;;;;4991714;28;20463;-72
2022/02/15 08:31:16;;;;;;;14.20;7.97;;;8.30;93.40;;;;;;4991909;28;20877;-73
2022/02/15 08:33:43;;;;;;;13.50;8.03;;;8.20;92.70;;;;;;4991310;28;20199;-72
2022/02/15 08:36:09;;;;;;;16.87;7.63;;;8.10;93.10;;;;;;5006460;28;20194;-74
2022/02/15 08:38:35;;;;;;;18.27;8.07;;;8.10;93.20;;;;;;4987951;28;20446;-73
2022/02/15 08:41:01;;;;;;;16.40;9.10;;;8.10;93.10;;;;;;5000992;28;20429;-72
2022/02/15 08:43:27;;;;;;;17.30;8.40;;;8.00;93.30;;;;;;5000440;28;20168;-71
2022/02/15 08:45:53;;;;;;;17.77;8.80;;;8.10;93.10;;;;;;5001151;28;20845;-72
2022/02/15 08:48:19;;;;;;;16.53;8.10;;;8.10;92.50;;;;;;5004251;28;20510;-71
2022/02/15 08:50:44;;;;;;;18.83;7.63;;;8.20;92.80;;;;;;4991304;28;20179;-73
2022/02/15 08:53:10;;;;;;;13.07;8.27;;;8.30;92.40;;;;;;4995059;28;20973;-72
2022/02/15 08:55:36;;;;;;;11.90;6.50;;;8.40;92.40;;;;;;4997417;28;20460;-73
2022/02/15 08:58:02;;;;;;;14.80;6.10;;;8.50;91.30;;;;;;5000418;28;20172;-72
2022/02/15 09:00:28;;;;;;;10.33;6.00;;;8.60;90.60;;;;;;4991077;28;20218;-73
2022/02/15 09:02:55;;;;;;;12.40;7.33;;;8.70;91.20;;;;;;4994979;28;20164;-73
2022/02/15 09:05:21;;;;;;;18.27;7.00;;;8.90;89.40;;;;;;4990974;28;20468;-72
2022/02/15 09:07:48;;;;;;;8.17;5.30;;;9.00;89.20;;;;;;4996709;28;20175;-72
2022/02/15 09:10:15;;;;;;;14.50;7.03;;;9.20;90.00;;;;;;4992108;28;20283;-72
2022/02/15 09:12:41;;;;;;;10.63;5.80;;;9.60;90.10;;;;;;5003494;28;20840;-72
2022/02/15 09:15:10;;;;;;;11.63;5.93;;;9.70;85.00;;;;;;4995611;28;20548;-73
2022/02/15 09:17:39;;;;;;;9.80;5.63;;;9.80;86.30;;;;;;4991340;28;20690;-74
2022/02/15 09:20:13;;;;;;;12.10;7.30;;;9.70;82.70;;;;;;4989120;28;20580;-73
2022/02/15 09:22:40;;;;;;;19.97;9.77;;;9.60;83.30;;;;;;4987606;28;20429;-73
2022/02/15 09:25:07;;;;;;;10.37;7.07;;;9.50;84.50;;;;;;4988369;28;20442;-71
2022/02/15 09:27:32;;;;;;;12.00;6.07;;;9.50;84.70;;;;;;4987450;28;20465;-72
2022/02/15 09:29:58;;;;;;;10.23;6.20;;;9.50;85.10;;;;;;4988809;28;20532;-72
2022/02/15 09:32:24;;;;;;;12.43;5.87;;;9.30;83.70;;;;;;4990562;28;20179;-72
2022/02/15 09:34:50;;;;;;;9.03;5.20;;;9.20;84.80;;;;;;4988185;28;21248;-71
2022/02/15 09:37:16;;;;;;;11.03;4.97;;;9.00;85.60;;;;;;4988667;28;20427;-72
2022/02/15 09:39:42;;;;;;;13.00;6.67;;;9.00;86.20;;;;;;4989518;28;20238;-71
2022/02/15 09:42:09;;;;;;;9.57;7.37;;;8.90;86.30;;;;;;5002648;28;20195;-71
2022/02/15 09:44:35;;;;;;;10.50;5.33;;;8.80;86.60;;;;;;4986859;28;20453;-71
2022/02/15 09:47:00;;;;;;;16.93;6.00;;;8.80;86.50;;;;;;4987363;28;20509;-72
2022/02/15 09:52:13;;;;;;;10.23;5.97;;;8.90;86.80;;;;;;4982269;28;20615;-72
2022/02/15 09:54:39;;;;;;;6.77;5.03;;;8.90;85.00;;;;;;4999610;28;21232;-76
2022/02/15 09:57:06;;;;;;;14.10;6.40;;;8.80;85.40;;;;;;4992501;28;20442;-71
2022/02/15 09:59:31;;;;;;;10.80;5.83;;;8.80;86.10;;;;;;4989267;28;20447;-71
2022/02/15 10:01:57;;;;;;;12.83;5.70;;;8.80;86.90;;;;;;4997762;28;20849;-72
2022/02/15 10:04:34;;;;;;;17.90;5.77;;;8.90;86.40;;;;;;5001938;28;20530;-72
2022/02/15 10:07:06;;;;;;;10.03;6.40;;;8.90;85.30;;;;;;4999182;28;20164;-71
2022/02/15 10:09:33;;;;;;;14.80;5.37;;;8.90;86.20;;;;;;4993227;28;20482;-73
2022/02/15 10:12:07;;;;;;;12.17;6.17;;;9.00;85.30;;;;;;4991796;28;20423;-73
2022/02/15 10:14:39;;;;;;;13.60;6.30;;;9.10;84.20;;;;;;4989130;28;21086;-73
2022/02/15 10:17:15;;;;;;;10.17;6.10;;;9.30;84.60;;;;;;5007690;28;20421;-73
2022/02/15 10:19:43;;;;;;;14.20;8.30;;;9.60;82.00;;;;;;5006341;28;20987;-71
2022/02/15 10:22:09;;;;;;;15.90;4.60;;;9.70;82.90;;;;;;4986583;28;20791;-72
2022/02/15 10:24:37;;;;;;;8.07;4.87;;;10.00;78.30;;;;;;4996614;28;20425;-74
2022/02/15 10:27:11;;;;;;;9.00;5.80;;;10.10;76.60;;;;;;4996160;28;20175;-74
2022/02/15 10:29:46;;;;;;;14.27;5.03;;;10.00;76.20;;;;;;4983471;28;20517;-72
2022/02/15 10:32:20;;;;;;;9.03;5.53;;;10.00;77.10;;;;;;4994290;28;20418;-73
2022/02/15 10:34:48;;;;;;;12.50;5.03;;;10.20;75.50;;;;;;4995035;28;20458;-72
2022/02/15 10:37:15;;;;;;;6.03;3.80;;;10.00;75.20;;;;;;5025576;28;20428;-73
2022/02/15 10:39:42;;;;;;;7.33;3.80;;;9.90;76.90;;;;;;5009905;28;20431;-73
2022/02/15 10:42:23;;;;;;;8.70;4.10;;;9.90;76.20;;;;;;4992919;28;20419;-71
2022/02/15 10:44:57;;;;;;;6.90;3.53;;;9.90;77.10;;;;;;5006093;28;20428;-72
2022/02/15 10:47:34;;;;;;;10.53;3.90;;;9.90;75.40;;;;;;5010812;28;20426;-73
2022/02/15 10:50:08;;;;;;;7.60;3.57;;;9.70;74.40;;;;;;5001759;28;20792;-72
2022/02/15 10:52:36;;;;;;;7.80;3.20;;;9.70;74.10;;;;;;5004788;28;20424;-72
2022/02/15 10:55:03;;;;;;;8.53;3.90;;;9.80;73.10;;;;;;5013501;28;20515;-72
2022/02/15 10:57:29;;;;;;;10.30;5.00;;;9.70;72.50;;;;;;4996511;28;20484;-72
2022/02/15 10:59:57;;;;;;;9.73;3.53;;;9.70;73.10;;;;;;4991694;28;20489;-73
2022/02/15 11:02:26;;;;;;;9.33;4.50;;;9.90;73.80;;;;;;5017063;28;20413;-72
2022/02/15 11:04:56;;;;;;;22.20;4.97;;;10.00;71.40;;;;;;4999851;28;20446;-71
2022/02/15 11:07:27;;;;;;;8.73;4.70;;;10.20;70.00;;;;;;5007287;28;20430;-73
2022/02/15 11:10:04;;;;;;;3.70;2.30;;;10.60;68.90;;;;;;4998876;28;20448;-72
2022/02/15 11:12:50;;;;;;;6.90;2.77;;;10.90;66.70;;;;;;5005013;28;20919;-72
2022/02/15 11:15:21;;;;;;;5.70;3.93;;;11.10;65.60;;;;;;4996458;28;21049;-73
2022/02/15 11:17:49;;;;;;;9.53;4.07;;;11.40;63.70;;;;;;4981285;28;20416;-73
2022/02/15 11:20:17;;;;;;;6.70;3.73;;;11.60;62.60;;;;;;5000648;28;20444;-73
2022/02/15 11:22:54;;;;;;;7.93;3.50;;;11.80;62.20;;;;;;4993007;28;20896;-73
2022/02/15 11:25:41;;;;;;;8.97;3.37;;;12.10;62.50;;;;;;4993367;28;20505;-74
2022/02/15 11:28:14;;;;;;;9.90;2.77;;;12.20;58.90;;;;;;4992347;28;20418;-71
2022/02/15 11:30:52;;;;;;;9.97;3.33;;;12.10;58.50;;;;;;5008692;28;20925;-73
2022/02/15 11:33:26;;;;;;;6.23;3.90;;;11.80;57.60;;;;;;5007905;28;20466;-74
2022/02/15 11:35:57;;;;;;;5.73;2.83;;;11.40;57.00;;;;;;5012167;28;20449;-72
2022/02/15 11:41:46;;;;;;;4.77;2.87;;;11.00;58.10;;;;;;5108866;22;20484;-72
2022/02/15 11:44:15;;;;;;;5.90;3.27;;;10.50;59.00;;;;;;5042898;28;20444;-73
2022/02/15 11:46:43;;;;;;;7.70;3.50;;;10.20;59.40;;;;;;5047817;28;20511;-71
2022/02/15 11:49:14;;;;;;;5.63;2.77;;;10.00;60.10;;;;;;5054156;22;20479;-70
2022/02/15 11:51:45;;;;;;;7.47;3.40;;;9.70;62.70;;;;;;5019857;28;20408;-72
2022/02/15 11:54:13;;;;;;;6.00;3.30;;;9.70;63.90;;;;;;5034173;28;20554;-71
2022/02/15 11:56:43;;;;;;;14.40;4.40;;;9.70;64.00;;;;;;5054538;28;20435;-71
2022/02/15 11:59:17;;;;;;;7.90;3.63;;;9.60;63.30;;;;;;5031033;28;20509;-74
2022/02/15 12:01:53;;;;;;;5.90;2.80;;;9.50;63.20;;;;;;5046664;28;20424;-71
2022/02/15 12:04:19;;;;;;;8.27;4.27;;;9.50;64.00;;;;;;5053934;28;20442;-71
2022/02/15 12:06:48;;;;;;;5.07;2.97;;;9.40;64.00;;;;;;5035418;28;20412;-71
2022/02/15 12:09:14;;;;;;;6.10;2.70;;;9.50;63.40;;;;;;5050079;28;20335;-70
2022/02/15 12:11:44;;;;;;;21.20;5.50;;;9.50;60.10;;;;;;5050250;28;20464;-71
2022/02/15 12:14:18;;;;;;;4.43;2.60;;;9.50;60.10;;;;;;5051427;28;20951;-70
2022/02/15 12:16:54;;;;;;;15.23;3.60;;;9.50;58.30;;;;;;5033686;28;20518;-71
2022/02/15 12:19:26;;;;;;;10.10;3.57;;;9.60;58.50;;;;;;5051949;28;20448;-70
2022/02/15 12:21:53;;;;;;;8.33;3.70;;;9.70;58.10;;;;;;5053304;28;20420;-71
2022/02/15 12:24:20;;;;;;;16.43;6.37;;;9.90;57.10;;;;;;5052272;28;20443;-71
2022/02/15 12:26:51;;;;;;;6.70;2.53;;;10.00;56.00;;;;;;5052905;28;20416;-71
2022/02/15 12:29:17;;;;;;;13.33;4.57;;;10.10;55.10;;;;;;5052212;28;20806;-71
2022/02/15 12:31:43;;;;;;;12.23;6.00;;;10.00;54.60;;;;;;5051274;28;20478;-72
2022/02/15 12:34:13;;;;;;;8.50;4.23;;;10.00;54.60;;;;;;5053551;28;20979;-71
2022/02/15 12:36:40;;;;;;;8.20;2.57;;;10.10;54.60;;;;;;5052656;28;20431;-71
2022/02/15 12:39:07;;;;;;;3.83;1.83;;;10.00;54.20;;;;;;5048246;28;20433;-70
2022/02/15 12:41:38;;;;;;;7.20;2.33;;;10.00;55.10;;;;;;5051745;28;20912;-71
2022/02/15 12:44:05;;;;;;;6.07;2.50;;;10.10;55.00;;;;;;5052264;28;20503;-70
2022/02/15 12:46:32;;;;;;;3.27;1.77;;;10.10;55.10;;;;;;5051881;28;20455;-69
2022/02/15 12:49:01;;;;;;;5.50;2.00;;;10.00;53.80;;;;;;5032215;28;20519;-70
2022/02/15 12:51:30;;;;;;;2.93;1.70;;;10.00;54.50;;;;;;5044901;28;20537;-71
2022/02/15 12:53:57;;;;;;;7.27;1.97;;;10.00;53.70;;;;;;5059514;28;20459;-70
2022/02/15 12:56:30;;;;;;;8.20;2.70;;;10.00;53.40;;;;;;5066900;28;20422;-71
2022/02/15 12:59:10;;;;;;;3.40;1.40;;;10.10;53.40;;;;;;5043649;28;20436;-71
2022/02/15 13:01:37;;;;;;;3.10;1.90;;;10.20;53.10;;;;;;5058553;28;20408;-70
2022/02/15 13:04:07;;;;;;;2.47;1.57;;;10.10;52.00;;;;;;5051459;28;20788;-70
2022/02/15 13:06:39;;;;;;;4.70;1.60;;;10.10;51.50;;;;;;5071254;28;20457;-71
2022/02/15 13:09:10;;;;;;;4.33;1.70;;;10.20;51.80;;;;;;5041136;28;20448;-70
2022/02/15 13:11:36;;;;;;;3.83;1.17;;;10.20;50.70;;;;;;5050754;28;20432;-70
2022/02/15 13:14:02;;;;;;;5.53;1.47;;;10.30;50.30;;;;;;5045737;28;20460;-71
2022/02/15 13:16:42;;;;;;;7.80;1.50;;;10.40;50.50;;;;;;5051657;28;20817;-72
2022/02/15 13:19:08;;;;;;;6.93;2.93;;;10.60;50.80;;;;;;5045593;28;20511;-71
2022/02/15 13:21:45;;;;;;;7.67;2.00;;;10.60;51.00;;;;;;5059722;28;20450;-71